createdAt,value
2022-11-05T00:00:44.930Z,11.05
2022-11-05T00:03:31.648Z,11.13
2022-11-05T00:06:18.659Z,13.45
2022-11-05T00:09:06.197Z,13.02
2022-11-05T00:11:52.604Z,13.98
2022-11-05T00:14:38.348Z,47.80
2022-11-05T00:17:05.714Z,12.80
2022-11-05T00:20:41.594Z,12.48
2022-11-05T00:23:26.954Z,11.82
2022-11-05T00:26:04.925Z,8.73
2022-11-05T00:28:32.866Z,15.35
2022-11-05T00:31:04.071Z,12.73
2022-11-05T00:33:31.297Z,12.63
2022-11-05T00:36:02.969Z,10.80
2022-11-05T00:38:33.148Z,9.43
2022-11-05T00:41:00.893Z,18.05
2022-11-05T00:43:46.590Z,12.20
2022-11-05T00:46:13.716Z,13.10
2022-11-05T00:48:59.291Z,12.73
2022-11-05T00:51:26.362Z,15.35
2022-11-05T00:53:56.509Z,13.88
2022-11-05T00:56:23.693Z,12.30
2022-11-05T00:58:51.619Z,15.93
2022-11-05T01:01:18.605Z,14.65
2022-11-05T01:03:51.255Z,13.82
2022-11-05T01:06:18.796Z,14.77
2022-11-05T01:08:46.757Z,13.60
2022-11-05T01:11:34.252Z,17.08
2022-11-05T01:14:10.070Z,14.10
2022-11-05T01:16:39.733Z,14.18
2022-11-05T01:19:08.933Z,11.25
2022-11-05T01:21:36.239Z,13.85
2022-11-05T01:24:04.421Z,12.73
2022-11-05T01:26:31.517Z,14.85
2022-11-05T01:29:01.959Z,15.35
2022-11-05T01:31:30.553Z,18.58
2022-11-05T01:33:57.517Z,27.10
2022-11-05T01:36:24.517Z,14.95
2022-11-05T01:38:52.394Z,14.82
2022-11-05T01:41:19.280Z,18.42
2022-11-05T01:43:49.059Z,18.88
2022-11-05T01:46:25.870Z,16.90
2022-11-05T01:49:01.738Z,16.35
2022-11-05T01:51:32.564Z,15.73
2022-11-05T01:54:04.845Z,18.77
2022-11-05T01:56:40.125Z,19.23
2022-11-05T01:59:13.452Z,21.55
2022-11-05T02:01:40.471Z,21.67
2022-11-05T02:04:12.360Z,20.25
2022-11-05T02:06:46.541Z,24.05
2022-11-05T02:09:21.238Z,20.58
2022-11-05T02:11:49.348Z,25.73
2022-11-05T02:14:19.356Z,22.25
2022-11-05T02:16:56.722Z,30.15
2022-11-05T02:19:45.196Z,21.73
2022-11-05T02:22:40.636Z,24.02
2022-11-05T02:25:42.157Z,18.63
2022-11-05T02:29:02.296Z,20.90
2022-11-05T02:31:45.070Z,23.50
2022-11-05T02:34:28.416Z,23.42
2022-11-05T02:37:40.982Z,21.42
2022-11-05T02:40:28.476Z,24.27
2022-11-05T02:43:14.955Z,26.55
2022-11-05T02:46:05.161Z,24.80
2022-11-05T02:48:40.989Z,21.33
2022-11-05T02:51:23.427Z,22.75
2022-11-05T02:54:03.464Z,23.83
2022-11-05T02:56:34.180Z,26.30
2022-11-05T02:59:01.140Z,26.70
2022-11-05T03:01:28.220Z,24.58
2022-11-05T03:04:01.083Z,25.15
2022-11-05T03:06:45.170Z,24.83
2022-11-05T03:09:42.982Z,23.60
2022-11-05T03:12:31.838Z,27.00
2022-11-05T03:15:40.524Z,23.50
2022-11-05T03:18:47.580Z,21.90
2022-11-05T03:21:22.318Z,23.13
2022-11-05T03:24:17.694Z,18.73
2022-11-05T03:27:15.856Z,18.75
2022-11-05T03:29:58.135Z,25.33
2022-11-05T03:32:27.269Z,26.17
2022-11-05T03:35:01.755Z,24.50
2022-11-05T03:37:34.595Z,24.45
2022-11-05T03:40:09.318Z,22.45
2022-11-05T03:42:38.607Z,30.77
2022-11-05T03:45:14.558Z,26.83
2022-11-05T03:47:44.563Z,25.50
2022-11-05T03:50:41.092Z,28.38
2022-11-05T03:53:22.391Z,29.30
2022-11-05T03:56:21.551Z,25.92
2022-11-05T03:58:51.401Z,28.60
2022-11-05T04:01:24.280Z,26.75
2022-11-05T04:03:51.254Z,25.52
2022-11-05T04:06:37.800Z,21.60
2022-11-05T04:09:24.484Z,24.60
2022-11-05T04:12:09.976Z,29.20
2022-11-05T04:14:36.979Z,28.38
2022-11-05T04:17:09.720Z,31.05
2022-11-05T04:19:57.691Z,28.42
2022-11-05T04:22:45.242Z,22.30
2022-11-05T04:25:23.986Z,25.05
2022-11-05T04:27:52.021Z,26.35
2022-11-05T04:30:20.418Z,22.23
2022-11-05T04:33:02.293Z,24.08
2022-11-05T04:35:32.853Z,25.67
2022-11-05T04:38:00.293Z,25.40
2022-11-05T04:40:30.143Z,26.98
2022-11-05T04:42:58.464Z,26.48
2022-11-05T04:45:28.777Z,25.33
2022-11-05T04:47:55.670Z,23.98
2022-11-05T04:50:23.154Z,23.95
2022-11-05T04:52:50.156Z,30.75
2022-11-05T04:55:17.282Z,27.55
2022-11-05T04:57:47.118Z,20.83
2022-11-05T05:00:14.344Z,28.20
2022-11-05T05:02:41.242Z,25.80
2022-11-05T05:05:41.947Z,22.80
2022-11-05T05:08:11.831Z,24.38
2022-11-05T05:10:38.927Z,25.92
2022-11-05T05:13:06.834Z,24.08
2022-11-05T05:15:36.055Z,23.80
2022-11-05T05:18:02.981Z,23.08
2022-11-05T05:20:48.483Z,31.15
2022-11-05T05:23:15.296Z,22.73
2022-11-05T05:25:42.228Z,30.55
2022-11-05T05:28:10.582Z,19.83
2022-11-05T05:30:38.591Z,28.67
2022-11-05T05:33:06.017Z,24.85
2022-11-05T05:35:32.915Z,23.90
2022-11-05T05:37:59.855Z,28.40
2022-11-05T05:40:27.838Z,25.67
2022-11-05T05:42:56.934Z,19.17
2022-11-05T05:45:23.974Z,19.65
2022-11-05T05:47:56.931Z,25.60
2022-11-05T05:50:25.857Z,22.13
2022-11-05T05:53:00.816Z,25.10
2022-11-05T05:55:28.732Z,32.90
2022-11-05T05:57:56.963Z,27.65
2022-11-05T06:00:26.778Z,21.67
2022-11-05T06:02:56.592Z,23.67
2022-11-05T06:05:27.159Z,32.47
2022-11-05T06:07:57.814Z,29.60
2022-11-05T06:10:52.731Z,26.50
2022-11-05T06:14:14.726Z,23.13
2022-11-05T06:17:37.355Z,27.85
2022-11-05T06:20:08.914Z,19.30
2022-11-05T06:22:35.963Z,20.70
2022-11-05T06:25:02.895Z,24.23
2022-11-05T06:27:31.034Z,25.85
2022-11-05T06:29:58.198Z,26.60
2022-11-05T06:32:25.106Z,25.35
2022-11-05T06:34:56.843Z,24.58
2022-11-05T06:37:23.898Z,25.42
2022-11-05T06:39:58.779Z,28.08
2022-11-05T06:42:30.937Z,26.13
2022-11-05T06:45:00.483Z,26.43
2022-11-05T06:47:27.662Z,21.92
2022-11-05T06:49:54.692Z,24.00
2022-11-05T06:52:26.272Z,32.38
2022-11-05T06:55:00.200Z,23.83
2022-11-05T06:57:27.767Z,24.15
2022-11-05T07:00:00.583Z,28.88
2022-11-05T07:02:29.310Z,26.95
2022-11-05T07:05:07.415Z,25.08
2022-11-05T07:11:59.643Z,17.15
2022-11-05T07:14:28.526Z,23.33
2022-11-05T07:18:03.781Z,21.08
2022-11-05T07:20:34.270Z,28.88
2022-11-05T07:23:05.751Z,22.25
2022-11-05T07:26:24.557Z,24.50
2022-11-05T07:28:51.475Z,23.20
2022-11-05T07:31:18.307Z,22.55
2022-11-05T07:33:52.243Z,20.02
2022-11-05T07:36:21.155Z,16.35
2022-11-05T07:38:48.201Z,21.52
2022-11-05T07:41:15.224Z,20.30
2022-11-05T07:43:43.083Z,18.58
2022-11-05T07:46:13.909Z,16.42
2022-11-05T07:48:44.585Z,21.85
2022-11-05T07:51:11.470Z,19.90
2022-11-05T07:53:42.514Z,16.48
2022-11-05T07:56:12.992Z,21.30
2022-11-05T07:58:41.334Z,16.48
2022-11-05T08:01:09.630Z,18.50
2022-11-05T08:03:37.942Z,20.63
2022-11-05T08:06:05.052Z,17.70
2022-11-05T08:08:32.816Z,22.77
2022-11-05T08:11:07.675Z,17.17
2022-11-05T08:13:35.695Z,15.02
2022-11-05T08:16:03.151Z,14.27
2022-11-05T08:18:33.394Z,20.27
2022-11-05T08:21:06.240Z,14.82
2022-11-05T08:23:56.463Z,12.98
2022-11-05T08:26:24.518Z,13.85
2022-11-05T08:28:52.350Z,14.57
2022-11-05T08:31:20.227Z,16.35
2022-11-05T08:33:50.648Z,13.07
2022-11-05T08:36:19.698Z,15.85
2022-11-05T08:38:52.368Z,13.75
2022-11-05T08:43:51.404Z,14.82
2022-11-05T08:46:27.852Z,13.27
2022-11-05T08:49:22.860Z,18.38
2022-11-05T08:51:53.682Z,11.57
2022-11-05T08:54:32.953Z,14.60
2022-11-05T08:57:04.303Z,14.48
2022-11-05T08:59:35.614Z,17.33
2022-11-05T09:02:02.831Z,14.52
2022-11-05T09:04:30.838Z,12.93
2022-11-05T09:06:57.724Z,12.95
2022-11-05T09:09:24.711Z,16.60
2022-11-05T09:14:40.798Z,16.00
2022-11-05T09:17:20.473Z,16.02
2022-11-05T09:19:48.917Z,14.73
2022-11-05T09:22:16.835Z,16.58
2022-11-05T09:24:44.822Z,17.75
2022-11-05T09:27:15.699Z,12.57
2022-11-05T09:29:44.666Z,13.75
2022-11-05T09:32:12.243Z,14.27
2022-11-05T09:34:41.533Z,13.05
2022-11-05T09:37:12.376Z,14.07
2022-11-05T09:39:42.829Z,12.88
2022-11-05T09:42:19.135Z,16.08
2022-11-05T09:45:10.059Z,11.10
2022-11-05T09:47:47.807Z,14.48
2022-11-05T09:50:30.575Z,14.52
2022-11-05T09:55:39.040Z,12.05
2022-11-05T09:58:17.450Z,11.32
2022-11-05T10:00:54.865Z,12.93
2022-11-05T10:03:50.159Z,15.75
2022-11-05T10:06:47.647Z,14.38
2022-11-05T10:09:31.596Z,12.75
2022-11-05T10:12:05.212Z,15.77
2022-11-05T10:14:38.867Z,13.18
2022-11-05T10:17:18.083Z,15.13
2022-11-05T10:20:11.637Z,15.82
2022-11-05T10:22:49.162Z,12.32
2022-11-05T10:25:20.139Z,15.27
2022-11-05T10:27:54.672Z,13.27
2022-11-05T10:30:23.750Z,13.40
2022-11-05T10:32:57.099Z,14.05
2022-11-05T10:35:35.661Z,12.88
2022-11-05T10:38:09.406Z,11.32
2022-11-05T10:40:41.994Z,9.95
2022-11-05T10:46:53.335Z,11.73
2022-11-05T10:49:50.982Z,11.10
2022-11-05T10:52:34.029Z,9.18
2022-11-05T10:55:08.039Z,10.38
2022-11-05T10:57:40.473Z,10.32
2022-11-05T11:00:17.603Z,9.75
2022-11-05T11:02:46.561Z,5.68
2022-11-05T11:05:33.604Z,9.43
2022-11-05T11:08:18.669Z,9.45
2022-11-05T11:10:55.340Z,10.82
2022-11-05T11:13:52.014Z,10.13
2022-11-05T11:16:24.668Z,7.95
2022-11-05T11:21:28.133Z,9.77
2022-11-05T11:24:02.306Z,8.57
2022-11-05T11:26:51.455Z,9.15
2022-11-05T11:29:53.079Z,11.57
2022-11-05T11:32:22.574Z,10.38
2022-11-05T11:35:01.408Z,6.30
2022-11-05T11:37:37.153Z,12.07
2022-11-05T11:40:24.016Z,11.77
2022-11-05T11:43:27.188Z,11.15
2022-11-05T11:48:40.328Z,11.57
2022-11-05T11:51:19.801Z,10.13
2022-11-05T11:54:05.898Z,10.30
2022-11-05T11:56:47.778Z,9.38
2022-11-05T11:59:53.903Z,6.80
2022-11-05T12:02:22.665Z,9.57
2022-11-05T12:05:26.347Z,12.27
2022-11-05T12:08:17.817Z,8.82
2022-11-05T12:11:00.129Z,12.40
2022-11-05T12:14:07.568Z,10.27
2022-11-05T12:17:00.976Z,16.40
2022-11-05T12:19:53.337Z,9.40
2022-11-05T12:25:39.923Z,8.65
2022-11-05T12:29:04.530Z,12.75
2022-11-05T12:31:47.490Z,15.13
2022-11-05T12:34:30.137Z,12.95
2022-11-05T12:40:05.793Z,14.43
2022-11-05T12:42:51.249Z,12.50
2022-11-05T12:45:29.544Z,12.30
2022-11-05T12:48:23.244Z,8.57
2022-11-05T12:51:15.176Z,8.90
2022-11-05T12:54:05.977Z,8.35
2022-11-05T12:56:57.607Z,13.40
2022-11-05T12:59:43.443Z,12.13
2022-11-05T13:02:22.433Z,11.82
2022-11-05T13:05:14.423Z,11.10
2022-11-05T13:08:02.700Z,8.52
2022-11-05T13:10:43.897Z,12.85
2022-11-05T13:13:24.056Z,9.10
2022-11-05T13:15:59.236Z,7.68
2022-11-05T13:18:52.139Z,11.57
2022-11-05T13:21:24.148Z,9.98
2022-11-05T13:24:03.171Z,7.53
2022-11-05T13:26:45.981Z,9.40
2022-11-05T13:29:49.227Z,12.48
2022-11-05T13:34:57.797Z,9.75
2022-11-05T13:37:49.071Z,9.20
2022-11-05T13:40:26.256Z,9.05
2022-11-05T13:43:29.080Z,10.55
2022-11-05T13:46:32.522Z,14.35
2022-11-05T13:49:30.269Z,14.32
2022-11-05T13:52:29.640Z,8.65
2022-11-05T13:55:13.317Z,10.93
2022-11-05T13:58:05.223Z,12.27
2022-11-05T14:00:44.032Z,12.85
2022-11-05T14:03:22.188Z,12.27
2022-11-05T14:06:00.501Z,10.82
2022-11-05T14:08:29.713Z,12.23
2022-11-05T14:11:06.577Z,13.55
2022-11-05T14:13:48.320Z,11.68
2022-11-05T14:16:48.420Z,11.25
2022-11-05T14:19:20.513Z,10.82
2022-11-05T14:21:52.704Z,11.48
2022-11-05T14:24:38.915Z,11.88
2022-11-05T14:27:09.827Z,10.73
2022-11-05T14:29:39.873Z,9.02
2022-11-05T14:32:18.820Z,10.88
2022-11-05T14:35:01.843Z,10.90
2022-11-05T14:37:42.031Z,7.70
2022-11-05T14:40:42.753Z,14.88
2022-11-05T14:43:23.960Z,12.60
2022-11-05T14:45:56.027Z,9.48
2022-11-05T14:48:49.587Z,12.10
2022-11-05T14:51:31.744Z,14.10
2022-11-05T14:54:20.822Z,10.30
2022-11-05T14:57:00.245Z,9.20
2022-11-05T14:59:31.680Z,9.98
2022-11-05T15:02:26.834Z,13.68
2022-11-05T15:05:37.733Z,11.57
2022-11-05T15:08:27.011Z,9.68
2022-11-05T15:10:58.104Z,16.65
2022-11-05T15:14:20.131Z,10.25
2022-11-05T15:16:55.979Z,16.70
2022-11-05T15:19:38.681Z,12.32
2022-11-05T15:22:12.683Z,10.63
2022-11-05T15:24:42.594Z,9.07
2022-11-05T15:27:45.912Z,12.40
2022-11-05T15:32:55.089Z,14.25
2022-11-05T15:35:42.284Z,13.25
2022-11-05T15:38:25.881Z,14.57
2022-11-05T15:41:21.846Z,13.43
2022-11-05T15:43:50.488Z,16.20
2022-11-05T15:46:29.135Z,12.05
2022-11-05T15:49:07.131Z,15.00
2022-11-05T15:51:35.556Z,16.10
2022-11-05T15:56:55.472Z,15.32
2022-11-05T15:59:24.522Z,12.35
2022-11-05T16:02:22.903Z,12.10
2022-11-05T16:04:52.977Z,19.70
2022-11-05T16:07:21.902Z,16.95
2022-11-05T16:10:01.866Z,17.13
2022-11-05T16:12:38.373Z,14.70
2022-11-05T16:15:09.380Z,16.15
2022-11-05T16:17:55.525Z,17.17
2022-11-05T16:20:34.588Z,15.85
2022-11-05T16:23:05.275Z,13.35
2022-11-05T16:25:43.498Z,14.75
2022-11-05T16:28:24.327Z,18.42
2022-11-05T16:30:57.249Z,14.55
2022-11-05T16:33:43.934Z,14.57
2022-11-05T16:36:11.032Z,13.40
2022-11-05T16:38:37.924Z,15.00
2022-11-05T16:41:04.825Z,17.02
2022-11-05T16:43:31.755Z,17.05
2022-11-05T16:46:00.207Z,15.57
2022-11-05T16:48:27.756Z,13.90
2022-11-05T16:50:54.767Z,16.27
2022-11-05T16:53:24.093Z,15.50
2022-11-05T16:55:51.174Z,16.92
2022-11-05T16:58:20.843Z,15.82
2022-11-05T17:00:55.261Z,18.63
2022-11-05T17:03:22.294Z,16.58
2022-11-05T17:05:54.661Z,16.75
2022-11-05T17:08:22.074Z,14.95
2022-11-05T17:10:49.475Z,12.73
2022-11-05T17:13:20.276Z,14.48
2022-11-05T17:15:49.639Z,17.85
2022-11-05T17:18:19.189Z,14.60
2022-11-05T17:20:49.605Z,14.52
2022-11-05T17:23:19.366Z,15.60
2022-11-05T17:25:50.463Z,14.43
2022-11-05T17:28:18.708Z,18.45
2022-11-05T17:30:52.142Z,15.57
2022-11-05T17:33:20.283Z,13.73
2022-11-05T17:36:11.103Z,18.10
2022-11-05T17:38:42.849Z,16.33
2022-11-05T17:41:21.153Z,13.05
2022-11-05T17:43:53.710Z,11.45
2022-11-05T17:48:48.861Z,17.42
2022-11-05T17:51:19.934Z,15.57
2022-11-05T17:53:49.731Z,13.82
2022-11-05T17:56:34.429Z,16.23
2022-11-05T17:59:03.308Z,9.93
2022-11-05T18:01:38.266Z,12.27
2022-11-05T18:04:09.079Z,19.27
2022-11-05T18:06:40.535Z,13.25
2022-11-05T18:09:09.037Z,14.43
2022-11-05T18:11:37.791Z,17.75
2022-11-05T18:14:08.317Z,9.13
2022-11-05T18:16:43.551Z,13.18
2022-11-05T18:19:13.898Z,16.25
2022-11-05T18:21:43.955Z,15.30
2022-11-05T18:24:12.843Z,16.27
2022-11-05T18:26:39.694Z,17.55
2022-11-05T18:29:16.880Z,10.60
2022-11-05T18:31:46.849Z,8.68
2022-11-05T18:35:10.454Z,16.45
2022-11-05T18:40:11.074Z,10.48
2022-11-05T18:42:42.798Z,12.95
2022-11-05T18:45:15.138Z,16.20
2022-11-05T18:47:43.593Z,19.40
2022-11-05T18:50:16.220Z,13.98
2022-11-05T18:55:19.720Z,13.25
2022-11-05T18:58:11.516Z,10.35
2022-11-05T19:00:40.711Z,11.63
2022-11-05T19:03:13.527Z,13.05
2022-11-05T19:05:40.797Z,10.48
2022-11-05T19:08:12.260Z,13.57
2022-11-05T19:10:51.896Z,18.98
2022-11-05T19:16:28.928Z,12.38
2022-11-05T19:19:02.537Z,17.02
2022-11-05T19:21:39.274Z,12.50
2022-11-05T19:24:09.835Z,16.75
2022-11-05T19:26:38.078Z,11.70
2022-11-05T19:29:05.490Z,8.48
2022-11-05T19:31:35.937Z,12.13
2022-11-05T19:34:11.669Z,15.02
2022-11-05T19:36:44.370Z,15.20
2022-11-05T19:39:14.853Z,14.25
2022-11-05T19:41:42.379Z,10.98
2022-11-05T19:44:10.113Z,10.32
2022-11-05T19:46:52.918Z,10.65
2022-11-05T19:51:53.565Z,15.60
2022-11-05T19:54:22.141Z,11.38
2022-11-05T19:56:53.235Z,19.13
2022-11-05T19:59:20.143Z,11.25
2022-11-05T20:01:49.093Z,13.25
2022-11-05T20:04:17.144Z,17.05
2022-11-05T20:06:45.015Z,12.38
2022-11-05T20:09:23.747Z,11.13
2022-11-05T20:11:54.387Z,12.05
2022-11-05T20:14:28.038Z,10.13
2022-11-05T20:17:00.645Z,20.42
2022-11-05T20:19:28.396Z,11.68
2022-11-05T20:22:02.560Z,17.85
2022-11-05T20:24:35.735Z,10.95
2022-11-05T20:27:05.876Z,18.98
2022-11-05T20:29:35.894Z,10.77
2022-11-05T20:32:30.667Z,18.98
2022-11-05T20:34:58.703Z,15.18
2022-11-05T20:37:28.835Z,14.07
2022-11-05T20:40:03.816Z,12.93
2022-11-05T20:42:52.842Z,16.65
2022-11-05T20:45:20.011Z,18.10
2022-11-05T20:47:54.036Z,16.42
2022-11-05T20:52:49.466Z,14.27
2022-11-05T20:55:16.447Z,10.10
2022-11-05T20:57:43.664Z,18.48
2022-11-05T21:00:11.997Z,9.43
2022-11-05T21:02:42.444Z,15.82
2022-11-05T21:05:18.979Z,16.92
2022-11-05T21:07:48.162Z,16.52
2022-11-05T21:10:16.241Z,13.55
2022-11-05T21:12:49.178Z,15.88
2022-11-05T21:15:23.234Z,14.18
2022-11-05T21:17:51.004Z,16.85
2022-11-05T21:20:18.100Z,19.23
2022-11-05T21:22:45.500Z,13.20
2022-11-05T21:25:12.821Z,17.15
2022-11-05T21:28:09.873Z,15.00
2022-11-05T21:31:35.904Z,11.18
2022-11-05T21:35:23.279Z,12.43
2022-11-05T21:37:50.667Z,8.70
2022-11-05T21:40:18.702Z,15.40
2022-11-05T21:42:46.842Z,12.98
2022-11-05T21:45:14.922Z,15.25
2022-11-05T21:47:41.827Z,15.23
2022-11-05T21:50:08.926Z,15.30
2022-11-05T21:52:56.758Z,15.27
2022-11-05T21:55:42.191Z,12.82
2022-11-05T21:58:34.097Z,11.93
2022-11-05T22:01:01.776Z,18.02
2022-11-05T22:03:28.955Z,16.00
2022-11-05T22:05:57.571Z,14.60
2022-11-05T22:08:24.914Z,18.95
2022-11-05T22:10:54.156Z,19.17
2022-11-05T22:13:20.986Z,15.90
2022-11-05T22:15:56.220Z,18.42
2022-11-05T22:18:23.201Z,17.27
2022-11-05T22:20:55.871Z,12.82
2022-11-05T22:23:25.055Z,12.90
2022-11-05T22:26:01.767Z,11.23
2022-11-05T22:28:35.258Z,8.43
2022-11-05T22:31:02.527Z,14.20
2022-11-05T22:33:31.264Z,16.13
2022-11-05T22:36:00.143Z,14.10
2022-11-05T22:38:33.234Z,9.82
2022-11-05T22:42:15.194Z,9.70
2022-11-05T22:45:12.985Z,13.68
2022-11-05T22:47:43.000Z,9.65
2022-11-05T22:59:15.851Z,12.38
2022-11-05T23:01:47.352Z,17.52
2022-11-05T23:04:18.500Z,15.60
2022-11-05T23:07:07.786Z,14.98
2022-11-05T23:10:20.789Z,16.92
2022-11-05T23:13:13.317Z,12.30
2022-11-05T23:21:00.295Z,13.98
2022-11-05T23:28:07.493Z,13.95
2022-11-05T23:31:44.107Z,14.77
2022-11-05T23:34:11.652Z,6.15
2022-11-05T23:36:58.055Z,9.60
2022-11-05T23:39:26.093Z,10.35
2022-11-05T23:42:14.220Z,10.60
2022-11-05T23:45:20.746Z,12.48
2022-11-05T23:48:06.715Z,16.23
2022-11-05T23:51:04.195Z,11.75
2022-11-05T23:53:33.811Z,11.85
2022-11-05T23:56:10.069Z,12.73
2022-11-05T23:58:38.333Z,7.30
